sensor_id;sensor_type;location;lat;lon;timestamp;temperature;humidity
13052;DHT22;6592;47.484;9.726;2022-10-30T00:00:49;13.10;99.90
13052;DHT22;6592;47.484;9.726;2022-10-30T00:03:17;13.00;99.90
13052;DHT22;6592;47.484;9.726;2022-10-30T00:05:48;13.00;99.90
13052;DHT22;6592;47.484;9.726;2022-10-30T00:08:18;12.90;99.90
13052;DHT22;6592;47.484;9.726;2022-10-30T00:10:48;12.90;99.90
13052;DHT22;6592;47.484;9.726;2022-10-30T00:13:18;12.90;99.90
13052;DHT22;6592;47.484;9.726;2022-10-30T00:15:48;12.80;99.90
13052;DHT22;6592;47.484;9.726;2022-10-30T00:18:16;12.80;99.90
13052;DHT22;6592;47.484;9.726;2022-10-30T00:20:46;12.80;99.90
13052;DHT22;6592;47.484;9.726;2022-10-30T00:23:15;12.80;99.90
13052;DHT22;6592;47.484;9.726;2022-10-30T00:25:43;12.80;99.90
13052;DHT22;6592;47.484;9.726;2022-10-30T00:28:11;12.80;99.90
13052;DHT22;6592;47.484;9.726;2022-10-30T00:30:40;12.80;99.90
13052;DHT22;6592;47.484;9.726;2022-10-30T00:33:08;12.80;99.90
13052;DHT22;6592;47.484;9.726;2022-10-30T00:35:36;12.70;99.90
13052;DHT22;6592;47.484;9.726;2022-10-30T00:38:06;12.70;99.90
13052;DHT22;6592;47.484;9.726;2022-10-30T00:40:34;12.70;99.90
13052;DHT22;6592;47.484;9.726;2022-10-30T00:43:03;12.70;99.90
13052;DHT22;6592;47.484;9.726;2022-10-30T00:45:31;12.60;99.90
13052;DHT22;6592;47.484;9.726;2022-10-30T00:48:01;12.60;99.90
13052;DHT22;6592;47.484;9.726;2022-10-30T00:50:32;12.60;99.90
13052;DHT22;6592;47.484;9.726;2022-10-30T00:53:06;12.60;99.90
13052;DHT22;6592;47.484;9.726;2022-10-30T00:55:38;12.60;99.90
13052;DHT22;6592;47.484;9.726;2022-10-30T00:58:09;12.50;99.90
13052;DHT22;6592;47.484;9.726;2022-10-30T01:00:38;12.50;99.90
13052;DHT22;6592;47.484;9.726;2022-10-30T01:03:09;12.40;99.90
13052;DHT22;6592;47.484;9.726;2022-10-30T01:05:38;12.50;99.90
13052;DHT22;6592;47.484;9.726;2022-10-30T01:08:08;12.40;99.90
13052;DHT22;6592;47.484;9.726;2022-10-30T01:10:37;12.40;99.90
13052;DHT22;6592;47.484;9.726;2022-10-30T01:13:06;12.40;99.90
13052;DHT22;6592;47.484;9.726;2022-10-30T01:15:37;12.50;99.90
13052;DHT22;6592;47.484;9.726;2022-10-30T01:21:13;12.50;99.90
13052;DHT22;6592;47.484;9.726;2022-10-30T01:23:58;12.50;99.90
13052;DHT22;6592;47.484;9.726;2022-10-30T01:26:39;12.40;99.90
13052;DHT22;6592;47.484;9.726;2022-10-30T01:29:21;12.40;99.90
13052;DHT22;6592;47.484;9.726;2022-10-30T01:32:03;12.40;99.90
13052;DHT22;6592;47.484;9.726;2022-10-30T01:34:42;12.40;99.90
13052;DHT22;6592;47.484;9.726;2022-10-30T01:37:17;12.40;99.90
13052;DHT22;6592;47.484;9.726;2022-10-30T01:39:48;12.40;99.90
13052;DHT22;6592;47.484;9.726;2022-10-30T01:42:41;12.40;99.90
13052;DHT22;6592;47.484;9.726;2022-10-30T01:45:13;12.40;99.90
13052;DHT22;6592;47.484;9.726;2022-10-30T01:48:05;12.40;99.90
13052;DHT22;6592;47.484;9.726;2022-10-30T01:50:39;12.30;99.90
13052;DHT22;6592;47.484;9.726;2022-10-30T01:53:20;12.30;99.90
13052;DHT22;6592;47.484;9.726;2022-10-30T01:55:59;12.30;99.90
13052;DHT22;6592;47.484;9.726;2022-10-30T01:58:33;12.30;99.90
13052;DHT22;6592;47.484;9.726;2022-10-30T02:01:04;12.30;99.90
13052;DHT22;6592;47.484;9.726;2022-10-30T02:03:32;12.30;99.90
13052;DHT22;6592;47.484;9.726;2022-10-30T02:06:01;12.20;99.90
13052;DHT22;6592;47.484;9.726;2022-10-30T02:08:29;12.30;99.90
13052;DHT22;6592;47.484;9.726;2022-10-30T02:10:59;12.20;99.90
13052;DHT22;6592;47.484;9.726;2022-10-30T02:13:27;12.20;99.90
13052;DHT22;6592;47.484;9.726;2022-10-30T02:15:56;12.20;99.90
13052;DHT22;6592;47.484;9.726;2022-10-30T02:18:25;12.20;99.90
13052;DHT22;6592;47.484;9.726;2022-10-30T02:20:57;12.20;99.90
13052;DHT22;6592;47.484;9.726;2022-10-30T02:23:25;12.20;99.90
13052;DHT22;6592;47.484;9.726;2022-10-30T02:25:54;12.20;99.90
13052;DHT22;6592;47.484;9.726;2022-10-30T02:28:23;12.10;99.90
13052;DHT22;6592;47.484;9.726;2022-10-30T02:30:52;12.10;99.90
13052;DHT22;6592;47.484;9.726;2022-10-30T02:33:20;12.10;99.90
13052;DHT22;6592;47.484;9.726;2022-10-30T02:35:50;12.10;99.90
13052;DHT22;6592;47.484;9.726;2022-10-30T02:38:20;12.00;99.90
13052;DHT22;6592;47.484;9.726;2022-10-30T02:40:49;12.00;99.90
13052;DHT22;6592;47.484;9.726;2022-10-30T02:43:17;11.90;99.90
13052;DHT22;6592;47.484;9.726;2022-10-30T02:45:49;11.90;99.90
13052;DHT22;6592;47.484;9.726;2022-10-30T02:48:18;11.90;99.90
13052;DHT22;6592;47.484;9.726;2022-10-30T02:50:46;11.90;99.90
13052;DHT22;6592;47.484;9.726;2022-10-30T02:53:14;11.90;99.90
13052;DHT22;6592;47.484;9.726;2022-10-30T02:55:44;11.90;99.90
13052;DHT22;6592;47.484;9.726;2022-10-30T02:58:12;11.90;99.90
13052;DHT22;6592;47.484;9.726;2022-10-30T03:00:40;11.90;99.90
13052;DHT22;6592;47.484;9.726;2022-10-30T03:03:09;12.00;99.90
13052;DHT22;6592;47.484;9.726;2022-10-30T03:05:37;12.00;99.90
13052;DHT22;6592;47.484;9.726;2022-10-30T03:08:05;12.00;99.90
13052;DHT22;6592;47.484;9.726;2022-10-30T03:10:34;12.00;99.90
13052;DHT22;6592;47.484;9.726;2022-10-30T03:13:03;12.10;99.90
13052;DHT22;6592;47.484;9.726;2022-10-30T03:15:31;12.10;99.90
13052;DHT22;6592;47.484;9.726;2022-10-30T03:18:00;12.10;99.90
13052;DHT22;6592;47.484;9.726;2022-10-30T03:20:28;12.20;99.90
13052;DHT22;6592;47.484;9.726;2022-10-30T03:22:56;12.10;99.90
13052;DHT22;6592;47.484;9.726;2022-10-30T03:25:24;12.10;99.90
13052;DHT22;6592;47.484;9.726;2022-10-30T03:27:53;12.20;99.90
13052;DHT22;6592;47.484;9.726;2022-10-30T03:30:23;12.10;99.90
13052;DHT22;6592;47.484;9.726;2022-10-30T03:32:51;12.20;99.90
13052;DHT22;6592;47.484;9.726;2022-10-30T03:35:19;12.20;99.90
13052;DHT22;6592;47.484;9.726;2022-10-30T03:37:48;12.20;99.90
13052;DHT22;6592;47.484;9.726;2022-10-30T03:40:17;12.30;99.90
13052;DHT22;6592;47.484;9.726;2022-10-30T03:42:45;12.30;99.90
13052;DHT22;6592;47.484;9.726;2022-10-30T03:45:13;12.20;99.90
13052;DHT22;6592;47.484;9.726;2022-10-30T03:47:43;12.20;99.90
13052;DHT22;6592;47.484;9.726;2022-10-30T03:50:11;12.20;99.90
13052;DHT22;6592;47.484;9.726;2022-10-30T03:52:40;12.20;99.90
13052;DHT22;6592;47.484;9.726;2022-10-30T03:55:08;12.20;99.90
13052;DHT22;6592;47.484;9.726;2022-10-30T03:57:36;12.20;99.90
13052;DHT22;6592;47.484;9.726;2022-10-30T04:00:06;12.30;99.90
13052;DHT22;6592;47.484;9.726;2022-10-30T04:02:34;12.20;99.90
13052;DHT22;6592;47.484;9.726;2022-10-30T04:05:04;12.20;99.90
13052;DHT22;6592;47.484;9.726;2022-10-30T04:07:33;12.10;99.90
13052;DHT22;6592;47.484;9.726;2022-10-30T04:10:01;12.10;99.90
13052;DHT22;6592;47.484;9.726;2022-10-30T04:12:30;12.10;99.90
13052;DHT22;6592;47.484;9.726;2022-10-30T04:14:58;12.10;99.90
13052;DHT22;6592;47.484;9.726;2022-10-30T04:17:26;12.10;99.90
13052;DHT22;6592;47.484;9.726;2022-10-30T04:19:55;12.20;99.90
13052;DHT22;6592;47.484;9.726;2022-10-30T04:22:25;12.10;99.90
13052;DHT22;6592;47.484;9.726;2022-10-30T04:24:53;12.00;99.90
13052;DHT22;6592;47.484;9.726;2022-10-30T04:27:22;12.00;99.90
13052;DHT22;6592;47.484;9.726;2022-10-30T04:29:50;12.00;99.90
13052;DHT22;6592;47.484;9.726;2022-10-30T04:32:19;12.10;99.90
13052;DHT22;6592;47.484;9.726;2022-10-30T04:34:47;12.10;99.90
13052;DHT22;6592;47.484;9.726;2022-10-30T04:37:19;12.10;99.90
13052;DHT22;6592;47.484;9.726;2022-10-30T04:39:48;12.20;99.90
13052;DHT22;6592;47.484;9.726;2022-10-30T04:42:17;12.20;99.90
13052;DHT22;6592;47.484;9.726;2022-10-30T04:44:46;12.30;99.90
13052;DHT22;6592;47.484;9.726;2022-10-30T04:47:14;12.30;99.90
13052;DHT22;6592;47.484;9.726;2022-10-30T04:49:43;12.30;99.90
13052;DHT22;6592;47.484;9.726;2022-10-30T04:52:11;12.40;99.90
13052;DHT22;6592;47.484;9.726;2022-10-30T04:54:39;12.30;99.90
13052;DHT22;6592;47.484;9.726;2022-10-30T04:57:09;12.40;99.90
13052;DHT22;6592;47.484;9.726;2022-10-30T04:59:37;12.40;99.90
13052;DHT22;6592;47.484;9.726;2022-10-30T05:02:05;12.40;99.90
13052;DHT22;6592;47.484;9.726;2022-10-30T05:04:34;12.40;99.90
13052;DHT22;6592;47.484;9.726;2022-10-30T05:07:02;12.40;99.90
13052;DHT22;6592;47.484;9.726;2022-10-30T05:09:30;12.30;99.90
13052;DHT22;6592;47.484;9.726;2022-10-30T05:11:59;12.30;99.90
13052;DHT22;6592;47.484;9.726;2022-10-30T05:14:30;12.30;99.90
13052;DHT22;6592;47.484;9.726;2022-10-30T05:16:58;12.20;99.90
13052;DHT22;6592;47.484;9.726;2022-10-30T05:19:27;12.20;99.90
13052;DHT22;6592;47.484;9.726;2022-10-30T05:21:55;12.20;99.90
13052;DHT22;6592;47.484;9.726;2022-10-30T05:24:23;12.10;99.90
13052;DHT22;6592;47.484;9.726;2022-10-30T05:26:51;12.10;99.90
13052;DHT22;6592;47.484;9.726;2022-10-30T05:29:20;12.10;99.90
13052;DHT22;6592;47.484;9.726;2022-10-30T05:31:49;12.00;99.90
13052;DHT22;6592;47.484;9.726;2022-10-30T05:34:17;12.00;99.90
13052;DHT22;6592;47.484;9.726;2022-10-30T05:36:46;11.90;99.90
13052;DHT22;6592;47.484;9.726;2022-10-30T05:39:14;11.90;99.90
13052;DHT22;6592;47.484;9.726;2022-10-30T05:41:42;11.80;99.90
13052;DHT22;6592;47.484;9.726;2022-10-30T05:44:11;11.80;99.90
13052;DHT22;6592;47.484;9.726;2022-10-30T05:46:39;11.70;99.90
13052;DHT22;6592;47.484;9.726;2022-10-30T05:49:09;11.70;99.90
13052;DHT22;6592;47.484;9.726;2022-10-30T05:51:38;11.70;99.90
13052;DHT22;6592;47.484;9.726;2022-10-30T05:54:06;11.50;99.90
13052;DHT22;6592;47.484;9.726;2022-10-30T05:56:35;11.50;99.90
13052;DHT22;6592;47.484;9.726;2022-10-30T05:59:03;11.50;99.90
13052;DHT22;6592;47.484;9.726;2022-10-30T06:01:32;11.50;99.90
13052;DHT22;6592;47.484;9.726;2022-10-30T06:04:00;11.40;99.90
13052;DHT22;6592;47.484;9.726;2022-10-30T06:06:31;11.40;99.90
13052;DHT22;6592;47.484;9.726;2022-10-30T06:08:59;11.40;99.90
13052;DHT22;6592;47.484;9.726;2022-10-30T06:11:28;11.40;99.90
13052;DHT22;6592;47.484;9.726;2022-10-30T06:13:56;11.40;99.90
13052;DHT22;6592;47.484;9.726;2022-10-30T06:16:24;11.40;99.90
13052;DHT22;6592;47.484;9.726;2022-10-30T06:18:52;11.40;99.90
13052;DHT22;6592;47.484;9.726;2022-10-30T06:21:21;11.40;99.90
13052;DHT22;6592;47.484;9.726;2022-10-30T06:23:50;11.50;99.90
13052;DHT22;6592;47.484;9.726;2022-10-30T06:26:18;11.50;99.90
13052;DHT22;6592;47.484;9.726;2022-10-30T06:28:46;11.50;99.90
13052;DHT22;6592;47.484;9.726;2022-10-30T06:31:15;11.60;99.90
13052;DHT22;6592;47.484;9.726;2022-10-30T06:33:43;11.70;99.90
13052;DHT22;6592;47.484;9.726;2022-10-30T06:36:11;11.70;99.90
13052;DHT22;6592;47.484;9.726;2022-10-30T06:38:39;11.80;99.90
13052;DHT22;6592;47.484;9.726;2022-10-30T06:41:09;12.00;99.90
13052;DHT22;6592;47.484;9.726;2022-10-30T06:43:37;12.30;99.90
13052;DHT22;6592;47.484;9.726;2022-10-30T06:46:05;12.80;99.90
13052;DHT22;6592;47.484;9.726;2022-10-30T06:48:38;13.30;99.90
13052;DHT22;6592;47.484;9.726;2022-10-30T06:51:07;13.80;99.90
13052;DHT22;6592;47.484;9.726;2022-10-30T06:53:35;14.30;99.90
13052;DHT22;6592;47.484;9.726;2022-10-30T06:56:03;14.80;99.90
13052;DHT22;6592;47.484;9.726;2022-10-30T06:58:34;15.10;99.90
13052;DHT22;6592;47.484;9.726;2022-10-30T07:01:05;15.20;99.90
13052;DHT22;6592;47.484;9.726;2022-10-30T07:03:34;15.10;99.90
13052;DHT22;6592;47.484;9.726;2022-10-30T07:06:02;15.20;99.90
13052;DHT22;6592;47.484;9.726;2022-10-30T07:08:30;15.20;99.90
13052;DHT22;6592;47.484;9.726;2022-10-30T07:10:59;15.30;99.90
13052;DHT22;6592;47.484;9.726;2022-10-30T07:13:27;15.20;99.90
13052;DHT22;6592;47.484;9.726;2022-10-30T07:15:57;15.50;99.90
13052;DHT22;6592;47.484;9.726;2022-10-30T07:18:25;16.00;99.90
13052;DHT22;6592;47.484;9.726;2022-10-30T07:20:54;16.80;99.90
13052;DHT22;6592;47.484;9.726;2022-10-30T07:23:23;17.50;99.90
13052;DHT22;6592;47.484;9.726;2022-10-30T07:25:51;18.00;99.90
13052;DHT22;6592;47.484;9.726;2022-10-30T07:28:19;18.50;99.90
13052;DHT22;6592;47.484;9.726;2022-10-30T07:30:47;19.00;99.90
13052;DHT22;6592;47.484;9.726;2022-10-30T07:33:17;19.70;99.90
13052;DHT22;6592;47.484;9.726;2022-10-30T07:35:45;20.70;99.90
13052;DHT22;6592;47.484;9.726;2022-10-30T07:38:13;21.70;99.90
13052;DHT22;6592;47.484;9.726;2022-10-30T07:40:43;22.70;99.90
13052;DHT22;6592;47.484;9.726;2022-10-30T07:43:11;23.80;99.90
13052;DHT22;6592;47.484;9.726;2022-10-30T07:45:44;24.70;99.90
13052;DHT22;6592;47.484;9.726;2022-10-30T07:48:12;25.40;99.90
13052;DHT22;6592;47.484;9.726;2022-10-30T07:50:42;26.00;99.90
13052;DHT22;6592;47.484;9.726;2022-10-30T07:53:10;26.60;99.90
13052;DHT22;6592;47.484;9.726;2022-10-30T07:55:38;27.20;99.90
13052;DHT22;6592;47.484;9.726;2022-10-30T07:58:06;27.90;99.90
13052;DHT22;6592;47.484;9.726;2022-10-30T08:00:35;28.30;99.90
13052;DHT22;6592;47.484;9.726;2022-10-30T08:03:04;27.80;99.90
13052;DHT22;6592;47.484;9.726;2022-10-30T08:05:32;27.10;99.90
13052;DHT22;6592;47.484;9.726;2022-10-30T08:08:02;26.40;99.90
13052;DHT22;6592;47.484;9.726;2022-10-30T08:10:30;25.60;99.90
13052;DHT22;6592;47.484;9.726;2022-10-30T08:12:58;25.30;99.90
13052;DHT22;6592;47.484;9.726;2022-10-30T08:15:27;24.90;99.90
13052;DHT22;6592;47.484;9.726;2022-10-30T08:17:55;24.20;99.90
13052;DHT22;6592;47.484;9.726;2022-10-30T08:20:24;23.80;99.90
13052;DHT22;6592;47.484;9.726;2022-10-30T08:22:54;23.50;99.90
13052;DHT22;6592;47.484;9.726;2022-10-30T08:25:25;23.50;99.90
13052;DHT22;6592;47.484;9.726;2022-10-30T08:27:55;23.50;99.90
13052;DHT22;6592;47.484;9.726;2022-10-30T08:30:25;23.60;99.90
13052;DHT22;6592;47.484;9.726;2022-10-30T08:32:56;23.90;99.90
13052;DHT22;6592;47.484;9.726;2022-10-30T08:35:25;24.20;99.90
13052;DHT22;6592;47.484;9.726;2022-10-30T08:37:54;24.20;99.90
13052;DHT22;6592;47.484;9.726;2022-10-30T08:40:26;24.20;99.90
13052;DHT22;6592;47.484;9.726;2022-10-30T08:42:55;24.90;99.90
13052;DHT22;6592;47.484;9.726;2022-10-30T08:45:24;25.50;99.90
13052;DHT22;6592;47.484;9.726;2022-10-30T08:47:57;26.40;99.90
13052;DHT22;6592;47.484;9.726;2022-10-30T08:50:26;26.70;99.90
13052;DHT22;6592;47.484;9.726;2022-10-30T08:52:55;27.00;99.90
13052;DHT22;6592;47.484;9.726;2022-10-30T08:55:25;27.50;99.90
13052;DHT22;6592;47.484;9.726;2022-10-30T08:57:53;27.80;99.90
13052;DHT22;6592;47.484;9.726;2022-10-30T09:00:21;27.80;99.90
13052;DHT22;6592;47.484;9.726;2022-10-30T09:02:50;28.00;99.90
13052;DHT22;6592;47.484;9.726;2022-10-30T09:05:18;28.00;99.90
13052;DHT22;6592;47.484;9.726;2022-10-30T09:07:46;28.00;99.90
13052;DHT22;6592;47.484;9.726;2022-10-30T09:10:15;27.80;99.90
13052;DHT22;6592;47.484;9.726;2022-10-30T09:12:45;27.60;99.90
13052;DHT22;6592;47.484;9.726;2022-10-30T09:15:13;27.40;99.90
13052;DHT22;6592;47.484;9.726;2022-10-30T09:17:41;26.80;99.90
13052;DHT22;6592;47.484;9.726;2022-10-30T09:20:10;26.70;99.90
13052;DHT22;6592;47.484;9.726;2022-10-30T09:22:39;27.10;99.90
13052;DHT22;6592;47.484;9.726;2022-10-30T09:25:09;27.60;99.90
13052;DHT22;6592;47.484;9.726;2022-10-30T09:27:37;27.70;99.90
13052;DHT22;6592;47.484;9.726;2022-10-30T09:30:08;27.60;99.90
13052;DHT22;6592;47.484;9.726;2022-10-30T09:32:36;27.70;99.90
13052;DHT22;6592;47.484;9.726;2022-10-30T09:35:05;28.60;98.50
13052;DHT22;6592;47.484;9.726;2022-10-30T09:37:34;29.00;98.50
13052;DHT22;6592;47.484;9.726;2022-10-30T09:40:03;29.20;96.90
13052;DHT22;6592;47.484;9.726;2022-10-30T09:42:41;29.90;98.00
13052;DHT22;6592;47.484;9.726;2022-10-30T09:48:48;32.00;92.10
13052;DHT22;6592;47.484;9.726;2022-10-30T09:51:39;32.00;90.70
13052;DHT22;6592;47.484;9.726;2022-10-30T09:54:14;31.40;90.30
13052;DHT22;6592;47.484;9.726;2022-10-30T09:56:48;30.80;91.60
13052;DHT22;6592;47.484;9.726;2022-10-30T09:59:31;30.30;91.90
13052;DHT22;6592;47.484;9.726;2022-10-30T10:02:15;29.30;92.60
13052;DHT22;6592;47.484;9.726;2022-10-30T10:04:53;28.30;94.00
13052;DHT22;6592;47.484;9.726;2022-10-30T10:07:27;27.30;95.30
13052;DHT22;6592;47.484;9.726;2022-10-30T10:10:05;26.90;96.30
13052;DHT22;6592;47.484;9.726;2022-10-30T10:12:38;26.70;97.00
13052;DHT22;6592;47.484;9.726;2022-10-30T10:15:13;26.80;97.80
13052;DHT22;6592;47.484;9.726;2022-10-30T10:17:44;27.30;97.90
13052;DHT22;6592;47.484;9.726;2022-10-30T10:20:23;27.80;97.50
13052;DHT22;6592;47.484;9.726;2022-10-30T10:22:55;28.20;96.80
13052;DHT22;6592;47.484;9.726;2022-10-30T10:25:26;28.60;95.80
13052;DHT22;6592;47.484;9.726;2022-10-30T10:28:05;29.10;95.50
13052;DHT22;6592;47.484;9.726;2022-10-30T10:30:44;29.40;94.60
13052;DHT22;6592;47.484;9.726;2022-10-30T10:33:27;29.90;94.70
13052;DHT22;6592;47.484;9.726;2022-10-30T10:36:07;30.70;92.90
13052;DHT22;6592;47.484;9.726;2022-10-30T10:39:01;30.90;92.50
13052;DHT22;6592;47.484;9.726;2022-10-30T10:41:46;31.10;91.40
13052;DHT22;6592;47.484;9.726;2022-10-30T10:44:28;31.30;91.40
13052;DHT22;6592;47.484;9.726;2022-10-30T10:47:09;31.60;90.60
13052;DHT22;6592;47.484;9.726;2022-10-30T10:49:55;32.00;89.90
13052;DHT22;6592;47.484;9.726;2022-10-30T10:52:35;31.80;89.10
13052;DHT22;6592;47.484;9.726;2022-10-30T10:55:12;32.20;89.20
13052;DHT22;6592;47.484;9.726;2022-10-30T10:57:41;32.00;86.30
13052;DHT22;6592;47.484;9.726;2022-10-30T11:00:15;31.30;87.80
13052;DHT22;6592;47.484;9.726;2022-10-30T11:02:49;31.00;88.20
13052;DHT22;6592;47.484;9.726;2022-10-30T11:05:25;30.90;88.90
13052;DHT22;6592;47.484;9.726;2022-10-30T11:08:00;31.10;88.40
13052;DHT22;6592;47.484;9.726;2022-10-30T11:10:29;31.00;88.20
13052;DHT22;6592;47.484;9.726;2022-10-30T11:12:57;30.40;87.50
13052;DHT22;6592;47.484;9.726;2022-10-30T11:15:34;29.10;89.50
13052;DHT22;6592;47.484;9.726;2022-10-30T11:18:06;28.20;91.40
13052;DHT22;6592;47.484;9.726;2022-10-30T11:20:39;27.60;92.10
13052;DHT22;6592;47.484;9.726;2022-10-30T11:36:35;27.00;93.10
13052;DHT22;6592;47.484;9.726;2022-10-30T11:39:09;23.60;99.20
13052;DHT22;6592;47.484;9.726;2022-10-30T11:41:38;23.10;99.90
13052;DHT22;6592;47.484;9.726;2022-10-30T11:44:08;22.80;99.90
13052;DHT22;6592;47.484;9.726;2022-10-30T11:46:37;22.40;99.90
13052;DHT22;6592;47.484;9.726;2022-10-30T11:49:08;22.10;99.90
13052;DHT22;6592;47.484;9.726;2022-10-30T11:51:51;21.80;99.90
13052;DHT22;6592;47.484;9.726;2022-10-30T11:54:21;21.60;99.90
13052;DHT22;6592;47.484;9.726;2022-10-30T11:56:50;21.50;99.90
13052;DHT22;6592;47.484;9.726;2022-10-30T11:59:22;21.40;99.90
13052;DHT22;6592;47.484;9.726;2022-10-30T12:01:59;21.40;99.90
13052;DHT22;6592;47.484;9.726;2022-10-30T12:04:30;21.30;99.90
13052;DHT22;6592;47.484;9.726;2022-10-30T12:07:19;21.00;99.90
13052;DHT22;6592;47.484;9.726;2022-10-30T12:09:51;20.80;99.90
13052;DHT22;6592;47.484;9.726;2022-10-30T12:12:22;20.50;99.90
13052;DHT22;6592;47.484;9.726;2022-10-30T12:14:54;20.30;99.90
13052;DHT22;6592;47.484;9.726;2022-10-30T12:17:23;20.00;99.90
13052;DHT22;6592;47.484;9.726;2022-10-30T12:19:53;19.90;99.90
13052;DHT22;6592;47.484;9.726;2022-10-30T12:22:28;19.70;99.90
13052;DHT22;6592;47.484;9.726;2022-10-30T12:25:00;19.40;99.90
13052;DHT22;6592;47.484;9.726;2022-10-30T12:27:35;19.40;99.90
13052;DHT22;6592;47.484;9.726;2022-10-30T12:30:12;19.40;99.90
13052;DHT22;6592;47.484;9.726;2022-10-30T12:32:47;19.40;99.90
13052;DHT22;6592;47.484;9.726;2022-10-30T12:35:32;19.60;99.90
13052;DHT22;6592;47.484;9.726;2022-10-30T12:38:06;19.80;99.90
13052;DHT22;6592;47.484;9.726;2022-10-30T12:40:55;20.00;99.90
13052;DHT22;6592;47.484;9.726;2022-10-30T12:43:28;20.20;99.90
13052;DHT22;6592;47.484;9.726;2022-10-30T12:46:13;20.30;99.90
13052;DHT22;6592;47.484;9.726;2022-10-30T12:48:44;20.40;99.90
13052;DHT22;6592;47.484;9.726;2022-10-30T12:51:20;20.50;99.90
13052;DHT22;6592;47.484;9.726;2022-10-30T12:54:03;20.70;99.90
13052;DHT22;6592;47.484;9.726;2022-10-30T12:56:40;20.90;99.90
13052;DHT22;6592;47.484;9.726;2022-10-30T12:59:27;21.40;99.90
13052;DHT22;6592;47.484;9.726;2022-10-30T13:02:07;22.20;99.90
13052;DHT22;6592;47.484;9.726;2022-10-30T13:04:42;22.70;99.90
13052;DHT22;6592;47.484;9.726;2022-10-30T13:07:16;23.50;99.90
13052;DHT22;6592;47.484;9.726;2022-10-30T13:09:59;23.80;99.90
13052;DHT22;6592;47.484;9.726;2022-10-30T13:12:31;24.20;99.90
13052;DHT22;6592;47.484;9.726;2022-10-30T13:15:04;24.50;99.90
13052;DHT22;6592;47.484;9.726;2022-10-30T13:17:33;25.10;99.90
13052;DHT22;6592;47.484;9.726;2022-10-30T13:20:09;25.60;99.90
13052;DHT22;6592;47.484;9.726;2022-10-30T13:22:46;26.40;99.90
13052;DHT22;6592;47.484;9.726;2022-10-30T13:25:20;27.00;99.90
13052;DHT22;6592;47.484;9.726;2022-10-30T13:27:54;27.20;99.90
13052;DHT22;6592;47.484;9.726;2022-10-30T13:30:29;27.30;99.90
13052;DHT22;6592;47.484;9.726;2022-10-30T13:33:07;27.20;99.90
13052;DHT22;6592;47.484;9.726;2022-10-30T13:35:44;27.10;99.90
13052;DHT22;6592;47.484;9.726;2022-10-30T13:38:31;27.20;99.90
13052;DHT22;6592;47.484;9.726;2022-10-30T13:41:10;27.10;99.90
13052;DHT22;6592;47.484;9.726;2022-10-30T13:43:47;27.10;99.90
13052;DHT22;6592;47.484;9.726;2022-10-30T13:46:33;26.90;99.90
13052;DHT22;6592;47.484;9.726;2022-10-30T13:49:19;26.60;99.90
13052;DHT22;6592;47.484;9.726;2022-10-30T13:51:56;26.30;99.90
13052;DHT22;6592;47.484;9.726;2022-10-30T13:54:30;26.20;99.90
13052;DHT22;6592;47.484;9.726;2022-10-30T13:57:07;26.40;99.90
13052;DHT22;6592;47.484;9.726;2022-10-30T13:59:51;26.40;99.90
13052;DHT22;6592;47.484;9.726;2022-10-30T14:05:29;26.00;99.90
13052;DHT22;6592;47.484;9.726;2022-10-30T14:08:07;25.60;99.90
13052;DHT22;6592;47.484;9.726;2022-10-30T14:10:49;25.10;99.90
13052;DHT22;6592;47.484;9.726;2022-10-30T14:13:44;24.70;99.90
13052;DHT22;6592;47.484;9.726;2022-10-30T14:16:42;24.20;99.90
13052;DHT22;6592;47.484;9.726;2022-10-30T14:19:11;23.80;99.90
13052;DHT22;6592;47.484;9.726;2022-10-30T14:21:50;23.40;99.90
13052;DHT22;6592;47.484;9.726;2022-10-30T14:24:21;23.00;99.90
13052;DHT22;6592;47.484;9.726;2022-10-30T14:27:07;22.70;99.90
13052;DHT22;6592;47.484;9.726;2022-10-30T14:29:45;22.30;99.90
13052;DHT22;6592;47.484;9.726;2022-10-30T14:32:37;21.90;99.90
13052;DHT22;6592;47.484;9.726;2022-10-30T14:35:35;21.50;99.90
13052;DHT22;6592;47.484;9.726;2022-10-30T14:38:24;21.30;99.90
13052;DHT22;6592;47.484;9.726;2022-10-30T14:47:34;20.30;99.90
13052;DHT22;6592;47.484;9.726;2022-10-30T14:50:16;19.80;99.90
13052;DHT22;6592;47.484;9.726;2022-10-30T14:52:59;19.80;99.90
13052;DHT22;6592;47.484;9.726;2022-10-30T14:55:32;19.70;99.90
13052;DHT22;6592;47.484;9.726;2022-10-30T14:58:22;19.60;99.90
13052;DHT22;6592;47.484;9.726;2022-10-30T15:01:19;19.50;99.90
13052;DHT22;6592;47.484;9.726;2022-10-30T15:04:00;19.30;99.90
13052;DHT22;6592;47.484;9.726;2022-10-30T15:06:36;19.20;99.90
13052;DHT22;6592;47.484;9.726;2022-10-30T15:09:20;19.10;99.90
13052;DHT22;6592;47.484;9.726;2022-10-30T15:12:01;18.70;99.90
13052;DHT22;6592;47.484;9.726;2022-10-30T15:14:36;18.60;99.90
13052;DHT22;6592;47.484;9.726;2022-10-30T15:17:24;18.50;99.90
13052;DHT22;6592;47.484;9.726;2022-10-30T15:19:56;18.50;99.90
13052;DHT22;6592;47.484;9.726;2022-10-30T15:22:27;18.50;99.90
13052;DHT22;6592;47.484;9.726;2022-10-30T15:24:57;18.40;99.90
13052;DHT22;6592;47.484;9.726;2022-10-30T15:27:26;18.30;99.90
13052;DHT22;6592;47.484;9.726;2022-10-30T15:29:59;18.30;99.90
13052;DHT22;6592;47.484;9.726;2022-10-30T15:32:28;18.20;99.90
13052;DHT22;6592;47.484;9.726;2022-10-30T15:35:00;18.10;99.90
13052;DHT22;6592;47.484;9.726;2022-10-30T15:37:29;18.00;99.90
13052;DHT22;6592;47.484;9.726;2022-10-30T15:40:14;17.90;99.90
13052;DHT22;6592;47.484;9.726;2022-10-30T15:42:45;17.80;99.90
13052;DHT22;6592;47.484;9.726;2022-10-30T15:45:17;17.70;99.90
13052;DHT22;6592;47.484;9.726;2022-10-30T15:47:58;17.70;99.90
13052;DHT22;6592;47.484;9.726;2022-10-30T15:50:31;17.50;99.90
13052;DHT22;6592;47.484;9.726;2022-10-30T15:53:00;17.40;99.90
13052;DHT22;6592;47.484;9.726;2022-10-30T15:55:30;17.30;99.90
13052;DHT22;6592;47.484;9.726;2022-10-30T15:58:02;17.20;99.90
13052;DHT22;6592;47.484;9.726;2022-10-30T16:00:35;17.10;99.90
13052;DHT22;6592;47.484;9.726;2022-10-30T16:03:13;17.00;99.90
13052;DHT22;6592;47.484;9.726;2022-10-30T16:05:45;16.80;99.90
13052;DHT22;6592;47.484;9.726;2022-10-30T16:08:19;16.70;99.90
13052;DHT22;6592;47.484;9.726;2022-10-30T16:10:50;16.60;99.90
13052;DHT22;6592;47.484;9.726;2022-10-30T16:13:20;16.50;99.90
13052;DHT22;6592;47.484;9.726;2022-10-30T16:15:50;16.30;99.90
13052;DHT22;6592;47.484;9.726;2022-10-30T16:18:21;16.20;99.90
13052;DHT22;6592;47.484;9.726;2022-10-30T16:20:52;16.20;99.90
13052;DHT22;6592;47.484;9.726;2022-10-30T16:23:22;16.00;99.90
13052;DHT22;6592;47.484;9.726;2022-10-30T16:25:54;15.80;99.90
13052;DHT22;6592;47.484;9.726;2022-10-30T16:28:26;15.70;99.90
13052;DHT22;6592;47.484;9.726;2022-10-30T16:30:56;15.60;99.90
13052;DHT22;6592;47.484;9.726;2022-10-30T16:33:28;15.50;99.90
13052;DHT22;6592;47.484;9.726;2022-10-30T16:36:02;15.40;99.90
13052;DHT22;6592;47.484;9.726;2022-10-30T16:38:33;15.20;99.90
13052;DHT22;6592;47.484;9.726;2022-10-30T16:41:04;15.20;99.90
13052;DHT22;6592;47.484;9.726;2022-10-30T16:43:33;15.00;99.90
13052;DHT22;6592;47.484;9.726;2022-10-30T16:46:31;15.00;99.90